A- A+ FrançaisEnglishEspañol中国

最近的 LFBT Tarbes-Lourdes-PyrénéesEGGD Bristol LulsgateSDCO SorocabaVNTH ThamkharkaSKRG Rio NegroLFPO Paris-Orly

飞行员的航空天气,使用METAR(气象机场报告)进行的飞行准备和TAF(终端机场预报:针对以下情况的短期天气预报)航空)。 以及其他资源,例如VAC(目视进近图)和NOTAM(通知飞行员)以进行预试飞行.

METAR, TAF, VAC, NOTAM Carroll Co机场 (美国) / OACI KHZD

它位于附近 Huntingdon, McKenzie 在 6.9 km, Huntingdon 在 10 km, Hollow Rock 在 18 km, Gleason 在 19 km, Bruceton 在 20 km, Atwood 在 23 km, Paris 在 27 km, Glasgow (historical) 在 30 km, Greenfield 在 31 km, Bradford 在 31 km,

机场的高度为 Carroll Co机场的

151 m = 495 ft

跑道 Carroll Co机场的

附近的机场Carroll Co机场的

目前的天气 Carroll Co机场的 - KHZD

quelques nuages
31°C

Vent 7 km/h

可提供5天天气预报 McKenzie 在 6.9 km, Huntingdon 在 10 km, Hollow Rock 在 18 km, Gleason 在 19 km, Bruceton 在 20 km, Atwood 在 23 km, Paris 在 27 km, Glasgow (historical) 在 30 km, Greenfield 在 31 km, Bradford 在 31 km,

METAR Carroll Co机场的 - KHZD

KHZD 152035Z AUTO VRB04KT 10SM CLR 31/21 A2993 RMK A01

Carroll Co机场METAR解码 (美国)

KHZD机场发行的METAR日期2020年08月15日至20:35 GMT. 这是一个自动生成的METAR, 警告:此METAR已过期, 已于 35 天 7 小时 34 分钟.

可见度为16.1 km = 10 sm.

温度为31°C = 88 °F 露点为21°C = 70 °F 。 这相当于55%的相对湿度。.

QNH是1014 hPa = 29.94 inHg

的风4 kt = 7 km/h, 风向为°.

天空晴朗

备注 A01

TAF Carroll Co机场的 - KHZD

没有TAF

Carroll Co机场的NOTAM

提供的NOTAM不能保证其时事性。 在将其用于飞行准备或在飞行期间使用之前,飞行员是唯一负责验证其有效性的人员。

没有通知

数据源